aviador You're here:

LFSD Decoded Metar

DIJON in FRANCE
Report Time2017-09-24 12:00:00
UTC Time2017-09-24 12:18:04
Flight Rules vfr VFR
WindVRB at 02 kt
Visibility9999 m
Phenomena:N/A
Clouds:N/A
Expected CloudBase > 4,400 ft AGL from Temp-Dew spread
CeilingNone
Temp22°C (ISA +8)
Dew Point11°C (50% RH)
AAT21.6°C
QNH1020 hPa
Density Alt1,677 ft
Elevation745 ft
Report Wrong Elevation
Raw Report
METAR LFSD 241200Z AUTO VRB02KT CAVOK 22/11 Q1020=

Extra information for LFSD:More info

Metar Taf Metar & Taf Last 4 Metars F.Rules Stats Wind Profile Meteogram Temp Stats Airport Information Weather charts Add Link Nearby VenuesMetar ALERT Operation Metar Decoded Social comments